aviador You're here:

UKDR Decoded Metar

KRIVYY RIH in UKRAINE
Report Time2017-11-25 03:30:00
UTC Time2017-11-25 03:47:12
Flight Rules vfr VFR
Wind210° at 4 kt
W.Decomp.*RWY 18: 3.6 kt HW 1.8 kt RCW
W.Rank210° ranks 19
Current wind is below 210° avg. (7.9)
Visibility9999 m
Phenomena:N/A
Clouds:N/A
Expected CloudBase > 800 ft AGL from Temp-Dew spread
CeilingNone
Temp-5°C (ISA -19)
Dew Point-7°C (86% RH)
AAT-9.2°C
QNH1026 hPa
Density Alt-2,356 ft
Elevation407 ft
Report Wrong Elevation
Raw Report
UKDR 250330Z 21002MPS CAVOK M05/M07 Q1026 R36/09//70 NOSIG=

Extra information for UKDR:More info

Metar Taf Metar & Taf Last 4 Metars F.Rules Stats Wind Profile Meteogram Temp Stats Airport Information Weather charts Add Link Nearby VenuesMetar ALERT Operation Metar Decoded Social comments